Terminal Aerodrome Forecast
Issued by NWS Rapid City, SD

Home | Current Version | Previous Version | Text Only | Print | Product List | Glossary Off
Versions: 1 2 3 4 5 6 7 8 9 10 11 12 13 14 15 16 17 18

000
FTUS43 KUNR 281124
TAFRAP
TAF
KRAP 281124Z 2812/2912 04008KT P6SM BKN100
     FM281700 35009KT P6SM -TSRA OVC050CB
     FM290000 35013KT P6SM -SHRA OVC025=

USA.gov is the U.S. government's official web portal to all federal, state and local government web resources and services.